Terminal Aerodrome Forecast
Issued by NWS

Home | Current Version | Previous Version | Text Only | Print | Product List | Glossary On
Versions: 1 2 3 4 5 6 7 8 9 10 11 12 13 14 15
000
FTUS46 KLOX 311700
TAFBUR
TAF
KBUR 311722Z 3118/0118 00000KT 6SM HZ SCT013
     FM311900 03007KT P6SM SCT025
     FM010300 VRB03KT P6SM SKC
     FM011400 VRB03KT 5SM HZ SKC=

USA.gov is the U.S. government's official web portal to all federal, state and local government web resources and services.